sensor_id;sensor_type;location;lat;lon;timestamp;temperature;humidity
47546;DHT22;50104;52.002;4.688;2023-03-03T00:01:03;3.80;80.80
47546;DHT22;50104;52.002;4.688;2023-03-03T00:06:09;3.80;80.60
47546;DHT22;50104;52.002;4.688;2023-03-03T00:11:11;3.80;80.40
47546;DHT22;50104;52.002;4.688;2023-03-03T00:26:34;3.70;79.90
47546;DHT22;50104;52.002;4.688;2023-03-03T00:31:36;3.60;79.90
47546;DHT22;50104;52.002;4.688;2023-03-03T00:36:38;3.50;79.90
47546;DHT22;50104;52.002;4.688;2023-03-03T00:41:39;3.50;79.90
47546;DHT22;50104;52.002;4.688;2023-03-03T00:46:40;3.50;80.00
47546;DHT22;50104;52.002;4.688;2023-03-03T00:51:43;3.40;80.00
47546;DHT22;50104;52.002;4.688;2023-03-03T00:56:44;3.30;80.00
47546;DHT22;50104;52.002;4.688;2023-03-03T01:01:44;3.30;80.00
47546;DHT22;50104;52.002;4.688;2023-03-03T01:06:45;3.20;80.20
47546;DHT22;50104;52.002;4.688;2023-03-03T01:11:48;3.20;80.60
47546;DHT22;50104;52.002;4.688;2023-03-03T01:16:50;3.20;80.60
47546;DHT22;50104;52.002;4.688;2023-03-03T01:21:51;3.10;80.70
47546;DHT22;50104;52.002;4.688;2023-03-03T01:26:52;3.10;80.90
47546;DHT22;50104;52.002;4.688;2023-03-03T01:31:54;3.00;80.90
47546;DHT22;50104;52.002;4.688;2023-03-03T01:36:55;3.00;80.90
47546;DHT22;50104;52.002;4.688;2023-03-03T01:41:56;3.00;80.80
47546;DHT22;50104;52.002;4.688;2023-03-03T01:47:10;3.00;80.80
47546;DHT22;50104;52.002;4.688;2023-03-03T01:52:25;3.00;80.90
47546;DHT22;50104;52.002;4.688;2023-03-03T01:57:37;2.90;80.90
47546;DHT22;50104;52.002;4.688;2023-03-03T02:02:41;2.90;80.90
47546;DHT22;50104;52.002;4.688;2023-03-03T02:07:43;2.90;81.00
47546;DHT22;50104;52.002;4.688;2023-03-03T02:12:51;2.90;81.00
47546;DHT22;50104;52.002;4.688;2023-03-03T02:17:56;2.80;80.90
47546;DHT22;50104;52.002;4.688;2023-03-03T02:28:36;2.80;81.00
47546;DHT22;50104;52.002;4.688;2023-03-03T02:33:43;2.80;80.80
47546;DHT22;50104;52.002;4.688;2023-03-03T02:44:28;2.80;81.00
47546;DHT22;50104;52.002;4.688;2023-03-03T02:49:33;2.70;81.20
47546;DHT22;50104;52.002;4.688;2023-03-03T02:54:36;2.70;81.40
47546;DHT22;50104;52.002;4.688;2023-03-03T02:59:37;2.80;81.70
47546;DHT22;50104;52.002;4.688;2023-03-03T03:04:38;2.80;81.90
47546;DHT22;50104;52.002;4.688;2023-03-03T03:09:39;2.80;82.40
47546;DHT22;50104;52.002;4.688;2023-03-03T03:14:40;2.90;82.20
47546;DHT22;50104;52.002;4.688;2023-03-03T03:19:41;2.90;82.50
47546;DHT22;50104;52.002;4.688;2023-03-03T03:24:42;2.90;82.40
47546;DHT22;50104;52.002;4.688;2023-03-03T03:29:43;3.00;82.40
47546;DHT22;50104;52.002;4.688;2023-03-03T03:34:44;3.00;82.30
47546;DHT22;50104;52.002;4.688;2023-03-03T03:39:45;3.10;82.30
47546;DHT22;50104;52.002;4.688;2023-03-03T03:44:45;3.10;82.20
47546;DHT22;50104;52.002;4.688;2023-03-03T03:49:46;3.10;82.40
47546;DHT22;50104;52.002;4.688;2023-03-03T03:54:47;3.20;82.50
47546;DHT22;50104;52.002;4.688;2023-03-03T03:59:49;3.20;82.60
47546;DHT22;50104;52.002;4.688;2023-03-03T04:04:50;3.20;82.50
47546;DHT22;50104;52.002;4.688;2023-03-03T04:09:51;3.30;82.70
47546;DHT22;50104;52.002;4.688;2023-03-03T04:14:52;3.30;82.60
47546;DHT22;50104;52.002;4.688;2023-03-03T04:19:53;3.30;82.50
47546;DHT22;50104;52.002;4.688;2023-03-03T04:24:54;3.30;82.50
47546;DHT22;50104;52.002;4.688;2023-03-03T04:29:55;3.30;82.50
47546;DHT22;50104;52.002;4.688;2023-03-03T04:34:55;3.30;82.50
47546;DHT22;50104;52.002;4.688;2023-03-03T04:39:56;3.40;82.40
47546;DHT22;50104;52.002;4.688;2023-03-03T04:44:57;3.40;82.40
47546;DHT22;50104;52.002;4.688;2023-03-03T04:49:58;3.40;82.50
47546;DHT22;50104;52.002;4.688;2023-03-03T04:55:00;3.40;82.50
47546;DHT22;50104;52.002;4.688;2023-03-03T05:00:01;3.40;82.50
47546;DHT22;50104;52.002;4.688;2023-03-03T05:05:02;3.40;82.70
47546;DHT22;50104;52.002;4.688;2023-03-03T05:10:03;3.50;82.80
47546;DHT22;50104;52.002;4.688;2023-03-03T05:15:05;3.50;82.60
47546;DHT22;50104;52.002;4.688;2023-03-03T05:20:07;3.50;82.70
47546;DHT22;50104;52.002;4.688;2023-03-03T05:25:13;3.50;82.70
47546;DHT22;50104;52.002;4.688;2023-03-03T05:30:14;3.60;82.70
47546;DHT22;50104;52.002;4.688;2023-03-03T05:35:14;3.60;82.70
47546;DHT22;50104;52.002;4.688;2023-03-03T05:40:15;3.60;82.50
47546;DHT22;50104;52.002;4.688;2023-03-03T05:45:17;3.60;82.50
47546;DHT22;50104;52.002;4.688;2023-03-03T05:50:23;3.70;82.30
47546;DHT22;50104;52.002;4.688;2023-03-03T05:55:24;3.70;82.30
47546;DHT22;50104;52.002;4.688;2023-03-03T06:00:25;3.70;82.20
47546;DHT22;50104;52.002;4.688;2023-03-03T06:05:27;3.70;82.20
47546;DHT22;50104;52.002;4.688;2023-03-03T06:10:28;3.70;82.20
47546;DHT22;50104;52.002;4.688;2023-03-03T06:15:29;3.80;82.20
47546;DHT22;50104;52.002;4.688;2023-03-03T06:20:30;3.80;82.20
47546;DHT22;50104;52.002;4.688;2023-03-03T06:25:31;3.80;82.10
47546;DHT22;50104;52.002;4.688;2023-03-03T06:30:35;3.80;82.40
47546;DHT22;50104;52.002;4.688;2023-03-03T06:35:36;3.80;82.40
47546;DHT22;50104;52.002;4.688;2023-03-03T06:40:36;3.80;82.40
47546;DHT22;50104;52.002;4.688;2023-03-03T06:45:38;3.80;82.40
47546;DHT22;50104;52.002;4.688;2023-03-03T06:50:39;3.80;82.40
47546;DHT22;50104;52.002;4.688;2023-03-03T06:55:41;3.80;82.60
47546;DHT22;50104;52.002;4.688;2023-03-03T07:00:49;3.80;82.50
47546;DHT22;50104;52.002;4.688;2023-03-03T07:05:54;3.90;82.50
47546;DHT22;50104;52.002;4.688;2023-03-03T07:10:58;3.90;82.50
47546;DHT22;50104;52.002;4.688;2023-03-03T07:16:09;3.90;82.60
47546;DHT22;50104;52.002;4.688;2023-03-03T07:21:24;3.90;82.50
47546;DHT22;50104;52.002;4.688;2023-03-03T07:26:30;4.00;82.60
47546;DHT22;50104;52.002;4.688;2023-03-03T07:31:38;4.00;82.50
47546;DHT22;50104;52.002;4.688;2023-03-03T07:36:40;4.00;82.40
47546;DHT22;50104;52.002;4.688;2023-03-03T07:41:40;4.00;82.40
47546;DHT22;50104;52.002;4.688;2023-03-03T07:46:44;4.10;82.40
47546;DHT22;50104;52.002;4.688;2023-03-03T07:51:55;4.10;82.50
47546;DHT22;50104;52.002;4.688;2023-03-03T07:57:11;4.10;82.30
47546;DHT22;50104;52.002;4.688;2023-03-03T08:02:36;4.20;82.20
47546;DHT22;50104;52.002;4.688;2023-03-03T08:07:39;4.20;82.20
47546;DHT22;50104;52.002;4.688;2023-03-03T08:12:41;4.30;82.00
47546;DHT22;50104;52.002;4.688;2023-03-03T08:17:43;4.30;81.80
47546;DHT22;50104;52.002;4.688;2023-03-03T08:22:45;4.30;81.80
47546;DHT22;50104;52.002;4.688;2023-03-03T08:27:46;4.40;81.80
47546;DHT22;50104;52.002;4.688;2023-03-03T08:32:47;4.50;81.80
47546;DHT22;50104;52.002;4.688;2023-03-03T08:37:48;4.50;82.00
47546;DHT22;50104;52.002;4.688;2023-03-03T08:42:48;4.60;82.00
47546;DHT22;50104;52.002;4.688;2023-03-03T08:47:50;4.60;82.20
47546;DHT22;50104;52.002;4.688;2023-03-03T08:52:51;4.70;82.50
47546;DHT22;50104;52.002;4.688;2023-03-03T08:57:52;4.80;82.50
47546;DHT22;50104;52.002;4.688;2023-03-03T09:02:53;4.90;82.70
47546;DHT22;50104;52.002;4.688;2023-03-03T09:07:55;4.90;82.50
47546;DHT22;50104;52.002;4.688;2023-03-03T09:13:01;5.00;82.60
47546;DHT22;50104;52.002;4.688;2023-03-03T09:23:40;5.20;82.40
47546;DHT22;50104;52.002;4.688;2023-03-03T09:28:42;5.30;82.90
47546;DHT22;50104;52.002;4.688;2023-03-03T09:33:44;5.40;82.30
47546;DHT22;50104;52.002;4.688;2023-03-03T09:38:49;5.50;82.40
47546;DHT22;50104;52.002;4.688;2023-03-03T09:49:33;5.80;83.30
47546;DHT22;50104;52.002;4.688;2023-03-03T10:00:13;6.10;83.10
47546;DHT22;50104;52.002;4.688;2023-03-03T10:21:47;6.90;84.50
47546;DHT22;50104;52.002;4.688;2023-03-03T10:27:08;7.10;84.60
47546;DHT22;50104;52.002;4.688;2023-03-03T10:37:50;7.50;85.10
47546;DHT22;50104;52.002;4.688;2023-03-03T10:43:31;7.80;85.10
47546;DHT22;50104;52.002;4.688;2023-03-03T10:49:15;8.10;85.20
47546;DHT22;50104;52.002;4.688;2023-03-03T11:00:58;8.60;85.10
47546;DHT22;50104;52.002;4.688;2023-03-03T11:07:21;8.90;85.00
47546;DHT22;50104;52.002;4.688;2023-03-03T11:34:46;10.00;82.40
47546;DHT22;50104;52.002;4.688;2023-03-03T11:40:23;10.20;82.00
47546;DHT22;50104;52.002;4.688;2023-03-03T11:45:41;10.30;82.10
47546;DHT22;50104;52.002;4.688;2023-03-03T11:50:54;10.50;82.00
47546;DHT22;50104;52.002;4.688;2023-03-03T11:56:16;10.60;81.60
47546;DHT22;50104;52.002;4.688;2023-03-03T12:01:36;10.80;81.60
47546;DHT22;50104;52.002;4.688;2023-03-03T12:12:35;11.10;81.50
47546;DHT22;50104;52.002;4.688;2023-03-03T12:28:23;11.90;80.70
47546;DHT22;50104;52.002;4.688;2023-03-03T12:44:44;13.10;79.70
47546;DHT22;50104;52.002;4.688;2023-03-03T12:55:30;13.70;74.10
47546;DHT22;50104;52.002;4.688;2023-03-03T13:06:52;13.60;71.00
47546;DHT22;50104;52.002;4.688;2023-03-03T13:12:55;13.50;71.40
47546;DHT22;50104;52.002;4.688;2023-03-03T13:29:40;12.90;71.50
47546;DHT22;50104;52.002;4.688;2023-03-03T13:34:48;12.80;73.90
47546;DHT22;50104;52.002;4.688;2023-03-03T13:40:16;12.90;75.10
47546;DHT22;50104;52.002;4.688;2023-03-03T13:45:24;13.10;75.40
47546;DHT22;50104;52.002;4.688;2023-03-03T13:50:30;13.30;74.30
47546;DHT22;50104;52.002;4.688;2023-03-03T13:55:44;13.40;73.60
47546;DHT22;50104;52.002;4.688;2023-03-03T14:06:23;13.40;72.90
47546;DHT22;50104;52.002;4.688;2023-03-03T14:17:24;13.20;73.10
47546;DHT22;50104;52.002;4.688;2023-03-03T14:22:55;13.10;72.90
47546;DHT22;50104;52.002;4.688;2023-03-03T14:28:11;13.00;72.80
47546;DHT22;50104;52.002;4.688;2023-03-03T14:33:17;12.90;72.90
47546;DHT22;50104;52.002;4.688;2023-03-03T14:38:23;12.80;72.60
47546;DHT22;50104;52.002;4.688;2023-03-03T14:43:34;12.70;72.70
47546;DHT22;50104;52.002;4.688;2023-03-03T14:48:49;12.50;72.30
47546;DHT22;50104;52.002;4.688;2023-03-03T14:53:51;12.40;72.00
47546;DHT22;50104;52.002;4.688;2023-03-03T15:04:26;12.00;71.00
47546;DHT22;50104;52.002;4.688;2023-03-03T15:09:36;11.80;71.10
47546;DHT22;50104;52.002;4.688;2023-03-03T15:14:45;11.60;71.50
47546;DHT22;50104;52.002;4.688;2023-03-03T15:25:25;11.30;71.10
47546;DHT22;50104;52.002;4.688;2023-03-03T15:30:38;11.20;71.70
47546;DHT22;50104;52.002;4.688;2023-03-03T15:35:58;11.00;71.80
47546;DHT22;50104;52.002;4.688;2023-03-03T15:41:18;10.90;71.10
47546;DHT22;50104;52.002;4.688;2023-03-03T15:46:34;10.80;70.90
47546;DHT22;50104;52.002;4.688;2023-03-03T15:52:23;10.60;71.20
47546;DHT22;50104;52.002;4.688;2023-03-03T16:03:09;10.30;71.50
47546;DHT22;50104;52.002;4.688;2023-03-03T16:08:29;10.20;71.50
47546;DHT22;50104;52.002;4.688;2023-03-03T16:36:03;9.70;71.20
47546;DHT22;50104;52.002;4.688;2023-03-03T16:41:48;9.60;71.20
47546;DHT22;50104;52.002;4.688;2023-03-03T17:19:43;8.80;71.20
47546;DHT22;50104;52.002;4.688;2023-03-03T17:40:54;8.40;71.90
47546;DHT22;50104;52.002;4.688;2023-03-03T17:46:07;8.30;72.50
47546;DHT22;50104;52.002;4.688;2023-03-03T17:51:54;8.20;72.50
47546;DHT22;50104;52.002;4.688;2023-03-03T17:57:20;8.10;73.00
47546;DHT22;50104;52.002;4.688;2023-03-03T18:02:54;8.10;73.10
47546;DHT22;50104;52.002;4.688;2023-03-03T18:13:45;7.90;73.40
47546;DHT22;50104;52.002;4.688;2023-03-03T18:40:33;7.70;74.00
47546;DHT22;50104;52.002;4.688;2023-03-03T18:55:47;7.60;74.00
47546;DHT22;50104;52.002;4.688;2023-03-03T19:00:55;7.60;74.30
47546;DHT22;50104;52.002;4.688;2023-03-03T19:05:59;7.60;74.30
47546;DHT22;50104;52.002;4.688;2023-03-03T19:11:02;7.60;74.20
47546;DHT22;50104;52.002;4.688;2023-03-03T19:21:35;7.50;74.70
47546;DHT22;50104;52.002;4.688;2023-03-03T19:27:02;7.50;74.80
47546;DHT22;50104;52.002;4.688;2023-03-03T19:37:52;7.50;75.00
47546;DHT22;50104;52.002;4.688;2023-03-03T19:43:07;7.50;74.90
47546;DHT22;50104;52.002;4.688;2023-03-03T19:53:57;7.50;74.90
47546;DHT22;50104;52.002;4.688;2023-03-03T20:04:50;7.40;74.80
47546;DHT22;50104;52.002;4.688;2023-03-03T20:15:25;7.40;75.10
47546;DHT22;50104;52.002;4.688;2023-03-03T20:21:13;7.40;75.20
47546;DHT22;50104;52.002;4.688;2023-03-03T20:31:44;7.30;75.10
47546;DHT22;50104;52.002;4.688;2023-03-03T20:43:00;7.30;75.20
47546;DHT22;50104;52.002;4.688;2023-03-03T20:48:46;7.30;75.30
47546;DHT22;50104;52.002;4.688;2023-03-03T20:59:34;7.20;75.40
47546;DHT22;50104;52.002;4.688;2023-03-03T21:04:44;7.20;75.40
47546;DHT22;50104;52.002;4.688;2023-03-03T21:09:45;7.20;75.40
47546;DHT22;50104;52.002;4.688;2023-03-03T21:15:07;7.20;75.50
47546;DHT22;50104;52.002;4.688;2023-03-03T21:25:49;7.20;75.90
47546;DHT22;50104;52.002;4.688;2023-03-03T21:31:09;7.20;75.80
47546;DHT22;50104;52.002;4.688;2023-03-03T21:36:13;7.20;75.80
47546;DHT22;50104;52.002;4.688;2023-03-03T21:41:16;7.20;76.00
47546;DHT22;50104;52.002;4.688;2023-03-03T21:46:19;7.20;75.80
47546;DHT22;50104;52.002;4.688;2023-03-03T21:51:21;7.10;75.90
47546;DHT22;50104;52.002;4.688;2023-03-03T21:56:23;7.10;76.10
47546;DHT22;50104;52.002;4.688;2023-03-03T22:01:24;7.10;76.00
47546;DHT22;50104;52.002;4.688;2023-03-03T22:06:25;7.10;76.00
47546;DHT22;50104;52.002;4.688;2023-03-03T22:11:26;7.10;76.00
47546;DHT22;50104;52.002;4.688;2023-03-03T22:16:28;7.10;76.00
47546;DHT22;50104;52.002;4.688;2023-03-03T22:21:30;7.10;76.10
47546;DHT22;50104;52.002;4.688;2023-03-03T22:26:31;7.10;76.10
47546;DHT22;50104;52.002;4.688;2023-03-03T22:31:32;7.10;76.00
47546;DHT22;50104;52.002;4.688;2023-03-03T22:36:33;7.10;76.20
47546;DHT22;50104;52.002;4.688;2023-03-03T22:41:34;7.10;76.20
47546;DHT22;50104;52.002;4.688;2023-03-03T22:46:35;7.10;76.10
47546;DHT22;50104;52.002;4.688;2023-03-03T22:51:36;7.10;76.20
47546;DHT22;50104;52.002;4.688;2023-03-03T22:56:37;7.10;76.20
47546;DHT22;50104;52.002;4.688;2023-03-03T23:01:38;7.10;76.30
47546;DHT22;50104;52.002;4.688;2023-03-03T23:06:42;7.10;76.40
47546;DHT22;50104;52.002;4.688;2023-03-03T23:11:44;7.10;76.50
47546;DHT22;50104;52.002;4.688;2023-03-03T23:16:55;7.00;76.50
47546;DHT22;50104;52.002;4.688;2023-03-03T23:21:56;7.10;76.50
47546;DHT22;50104;52.002;4.688;2023-03-03T23:27:08;7.10;76.50
47546;DHT22;50104;52.002;4.688;2023-03-03T23:32:50;7.10;76.40
47546;DHT22;50104;52.002;4.688;2023-03-03T23:38:16;7.00;76.40
47546;DHT22;50104;52.002;4.688;2023-03-03T23:43:18;7.00;76.20
47546;DHT22;50104;52.002;4.688;2023-03-03T23:48:19;7.00;76.60
47546;DHT22;50104;52.002;4.688;2023-03-03T23:53:20;7.00;76.60
47546;DHT22;50104;52.002;4.688;2023-03-03T23:58:21;7.00;76.60
